CDT,Max TemperatureF,Mean TemperatureF,Min TemperatureF,Max Dew PointF,MeanDew PointF,Min DewpointF,Max Humidity, Mean Humidity, Min Humidity, Max Sea Level PressureIn, Mean Sea Level PressureIn, Min Sea Level PressureIn, Max VisibilityMiles, Mean VisibilityMiles, Min VisibilityMiles, Max Wind SpeedMPH, Mean Wind SpeedMPH, Max Gust SpeedMPH,PrecipitationIn, CloudCover, Events, WindDirDegrees
2012-7-1,95,85,75,73,70,59,83,63,32,29.98,29.91,29.86,10,8,2,14,5,17,0.00,1,,152
2012-7-2,96,84,73,70,66,63,74,55,32,29.98,29.93,29.89,10,10,10,16,7,21,0.00,0,,199
2012-7-3,98,86,75,70,68,63,74,55,32,29.94,29.87,29.81,10,10,10,17,6,25,0.00,0,,202
2012-7-4,98,88,78,68,63,55,65,45,24,29.90,29.87,29.84,10,10,10,15,8,21,0.00,0,,201
2012-7-5,98,88,78,70,64,61,70,46,29,29.98,29.94,29.89,10,10,10,12,6,12,0.00,0,,207
2012-7-6,100,86,73,66,63,55,73,46,22,30.02,29.97,29.94,10,10,10,12,5,21,0.00,0,,207
2012-7-7,104,90,75,75,66,46,73,53,15,30.05,29.99,29.95,10,10,10,20,5,20,0.00,0,,327
2012-7-8,87,80,73,66,59,54,73,51,33,30.13,30.08,30.04,10,10,10,14,9,18,0.00,3,,45
2012-7-9,89,76,64,66,59,50,78,52,26,30.12,30.09,30.05,10,10,10,13,3,18,0.00,1,,8
2012-7-10,87,74,60,63,56,52,77,50,29,30.12,30.09,30.06,10,10,10,15,6,17,0.00,1,,22
2012-7-11,89,78,66,55,50,39,64,41,18,30.15,30.11,30.05,10,10,10,12,6,17,0.00,1,,91
2012-7-12,93,80,66,61,55,50,64,44,23,30.07,30.03,29.98,10,10,10,13,5,16,0.00,2,,120
2012-7-13,87,79,69,66,62,59,73,60,40,30.09,30.02,29.99,10,10,10,18,6,22,0.00,1,Rain,152
2012-7-14,96,80,64,64,61,52,83,58,23,30.07,30.03,29.97,10,9,2,16,4,20,0.00,0,,190
2012-7-15,96,81,66,66,61,52,83,50,23,30.07,30.02,29.96,10,10,4,13,2,9,0.00,1,,222
2012-7-16,96,84,73,66,62,57,69,47,27,30.00,29.93,29.84,10,10,10,14,6,22,0.00,0,,208
2012-7-17,98,86,75,64,61,54,69,45,22,29.89,29.86,29.81,10,10,10,15,6,21,0.00,1,,204
2012-7-18,102,90,77,68,62,46,65,44,15,29.89,29.85,29.79,10,10,10,20,7,28,0.00,1,,224
2012-7-19,93,80,68,70,64,59,83,55,34,30.06,29.97,29.87,10,10,10,15,7,22,0.00,0,,355
2012-7-20,89,78,66,63,61,55,83,59,33,30.15,30.09,30.06,10,10,7,10,5,,0.00,0,,85
2012-7-21,96,80,64,64,60,48,83,51,20,30.13,30.07,30.00,10,10,7,12,4,9,0.00,0,,163
2012-7-22,102,86,71,61,54,37,69,38,11,30.11,30.01,29.94,10,10,10,18,7,25,0.00,0,,185
2012-7-23,105,89,73,64,53,36,61,32,9,30.03,29.98,29.92,10,10,10,13,7,18,0.00,0,,233
2012-7-24,98,88,78,70,63,57,62,43,25,29.98,29.91,29.82,10,10,10,15,6,20,0.00,1,,143
2012-7-25,105,90,73,66,56,43,78,35,12,29.82,29.70,29.59,10,10,7,29,10,38,0.00,1,Rain,214
2012-7-26,95,83,71,70,63,48,83,56,21,29.86,29.80,29.72,10,10,5,16,6,22,0.06,2,Rain,278
2012-7-27,84,74,64,64,57,52,77,55,33,30.09,29.98,29.87,10,10,10,15,8,22,0.00,1,,325
2012-7-28,82,72,62,61,58,55,78,65,42,30.19,30.14,30.09,10,10,10,10,1,,0.00,0,,88
2012-7-29,93,80,66,70,64,61,88,59,36,30.04,29.96,29.89,10,10,10,20,10,26,0.10,4,Rain,130
2012-7-30,93,82,71,72,68,64,83,65,43,29.97,29.93,29.90,10,10,7,7,3,,0.00,0,,142
2012-7-31,91,81,71,66,61,50,83,52,26,30.00,29.96,29.92,10,10,10,9,5,,0.00,0,,27